Pagrindinis puslapis
METAR-TAF:

METAR-TAF

Oro uostai :

Bodensee

Friedrichshafen, Vokietija

platuma: 47-40N, ilguma: 009-31E, Aukštis: 416 m

Dabartinis oras

Ataskaita buvo paskelbta 22 minutes, ne 18:20 UTC
Vėjas 8 kt iš Šiaurės
Temperatūra 12°C
Drėgmė 58%
Slėgis 1026 hPa
Matomumas 10 km arba daugiau
nėra debesų žemiau 1500 m ir nėra kamuolinių lietaus debesų

METAR: EDNY 191820Z 36008KT CAVOK 12/04 Q1026

Laikas: 20:42 (18:42 UTC)

Prognozė

Ataskaita buvo paskelbta 1 valandą ir 42 minutes, ne 17:00 UTC
Prognozė galioja nuo 19 metu 18 UTC su 20 metu 18 UTC
Vėjas 9 kt iš Šiaurės/Šiaurės Rytų
Matomumas 10 km arba daugiau
nėra debesų žemiau 1500 m ir nėra kamuolinių lietaus debesų

TAF: EDNY 191700Z 1918/2018 03009KT CAVOK

Orai ataskaitas ir orų prognozės (METAR, TAF).

turimą stotys yra geltonos ir raudonos taškus žemėlapyje.

Perkelti pele per norėdami pamatyti stoties vardą.

Tada spustelėkite, norėdami matyti oro stebėjimo ir prognozės.

Norėdami pakeisti žemėlapį: spustelėkite ant žalios mygtukų su juodo kryžiaus žemyn,; žalią mygtuką su brūkšneliu, jei norite nutolinti; arba žalių rodyklių gretimoms žemėlapius.


METAR-TAF: